This is the latest recevied weather packets stored in our database for station/object I5EKX-13. If no packets are shown the sender has not sent any weather packets the latest 10 day(s).
| Time | Temp. | Humidity | Pressure | Rain* | Wind** | Luminosity | Snow |
|---|---|---|---|---|---|---|---|
| 1777721915 | 25.56° C | 37% | 1018.8 hPa | - | - | - | - |
| 1777720712 | 25° C | 37% | 1019 hPa | - | - | - | - |
| 1777718304 | 25.56° C | 36% | 1019.6 hPa | - | - | - | - |
| 1777717100 | 25° C | 40% | 1019.7 hPa | - | - | - | - |
| 1777715896 | 25° C | 41% | 1019.8 hPa | - | - | - | - |
| 1777714693 | 25° C | 40% | 1020.1 hPa | - | - | - | - |
| 1777712286 | 24.44° C | 34% | 1020.1 hPa | - | - | - | - |
| 1777711081 | 24.44° C | 32% | 1020.1 hPa | - | - | - | - |
| 1777708674 | 23.89° C | 34% | 1020.2 hPa | - | - | - | - |
| 1777707470 | 22.22° C | 38% | 1020.3 hPa | - | - | - | - |
| 1777706266 | 19.44° C | 40% | 1020.4 hPa | - | - | - | - |
| 1777705063 | 19.44° C | 42% | 1020.4 hPa | - | - | - | - |
| 1777703859 | 18.89° C | 39% | 1020.4 hPa | - | - | - | - |
| 1777702655 | 17.78° C | 42% | 1020.3 hPa | - | - | - | - |
| 1777701451 | 15.56° C | 44% | 1020.4 hPa | - | - | - | - |
| 1777700247 | 13.89° C | 50% | 1020.3 hPa | - | - | - | - |
| 1777699044 | 12.78° C | 49% | 1020.2 hPa | - | - | - | - |
| 1777697840 | 12.22° C | 50% | 1020.1 hPa | - | - | - | - |
| 1777696636 | 9.44° C | 60% | 1020.1 hPa | - | - | - | - |
| 1777695432 | 8.89° C | 60% | 1020.2 hPa | - | - | - | - |
| 1777694229 | 9.44° C | 59% | 1020.1 hPa | - | - | - | - |
| 1777693025 | 10° C | 57% | 1020.1 hPa | - | - | - | - |
| 1777690631 | 12.22° C | 46% | 1020.2 hPa | - | - | - | - |
| 1777689414 | 12.78° C | 42% | 1020.1 hPa | - | - | - | - |
| 1777688210 | 12.78° C | 44% | 1020.1 hPa | - | - | - | - |
* Rain since midnight (hover to see other rain measurements)
** Current wind speed in m/s (hover to see current wind gust speed)